Data for 01/03/2017

Time Sea-Level Adjusted Pressure Absolute Pressure Temperature Relative Humidity Dew Point   
(mb) (inHg) (mb) (inHg) (C) (F) (%) (C) (F)
00:05 1020 30.12 849 25.07 -19.2 -2.5 67 -23.9 -11
00:10 1020 30.12 849 25.07 -19.1 -2.3 67 -23.8 -10.8
00:15 1020 30.12 849 25.07 -19.1 -2.3 67 -23.8 -10.8
00:20 1020 30.12 849 25.07 -19.2 -2.5 67 -23.9 -11.1
00:25 1020 30.12 849 25.07 -19.3 -2.7 67 -24 -11.2
00:30 1020 30.12 849 25.07 -19.5 -3 67 -24.1 -11.3
00:35 1020 30.12 849 25.07 -19.6 -3.2 68 -24.1 -11.3
00:40 1020 30.12 849 25.07 -19.7 -3.4 68 -24.2 -11.5
00:45 1020 30.12 849 25.07 -19.8 -3.6 69 -24.1 -11.4
00:50 1020 30.12 849 25.07 -19.9 -3.7 69 -24.1 -11.4
00:55 1020 30.12 849 25.07 -20 -3.9 69 -24.2 -11.6
01:00 1020 30.12 849 25.07 -20.1 -4.2 69 -24.4 -11.8
01:05 1020 30.12 849 25.07 -20.3 -4.5 70 -24.4 -12
01:10 1020 30.12 849 25.07 -20.4 -4.8 70 -24.5 -12.1
01:15 1020 30.12 849 25.07 -20.6 -5 70 -24.7 -12.4
01:20 1020 30.12 849 25.07 -20.8 -5.4 71 -24.8 -12.6
01:25 1020 30.12 849 25.07 -21 -5.7 71 -24.9 -12.7
01:30 1020 30.12 849 25.07 -21 -5.8 71 -24.9 -12.8
01:35 1020 30.12 849 25.07 -21 -5.8 71 -24.9 -12.8
01:40 1020 30.12 849 25.07 -21 -5.7 71 -24.9 -12.8
01:45 1020 30.12 850 25.1 -21 -5.8 72 -24.8 -12.7
01:50 1020 30.12 850 25.1 -21 -5.8 72 -24.9 -12.7
01:55 1020 30.12 850 25.1 -21 -5.9 71 -25 -13
02:00 1020 30.12 850 25.1 -21.2 -6.1 71 -25.1 -13.2
02:05 1020 30.12 850 25.1 -21.3 -6.3 70 -25.4 -13.7
02:10 1020 30.12 850 25.1 -21.3 -6.4 71 -25.2 -13.4
02:15 1021 30.15 850 25.1 -21.3 -6.4 72 -25.2 -13.3
02:20 1021 30.15 850 25.1 -21.2 -6.2 71 -25.1 -13.3
02:25 1021 30.15 850 25.1 -21.3 -6.4 70 -25.4 -13.7
02:30 1021 30.15 850 25.1 -21.4 -6.6 70 -25.5 -13.9
02:35 1021 30.15 850 25.1 -21.5 -6.6 70 -25.5 -13.9
02:40 1021 30.15 850 25.1 -21.5 -6.6 72 -25.3 -13.5
02:45 1021 30.15 850 25.1 -21.3 -6.3 72 -25.1 -13.2
02:50 1021 30.15 850 25.1 -21.1 -6 72 -25 -13
02:55 1021 30.15 850 25.1 -21.2 -6.1 71 -25.1 -13.2
03:00 1021 30.15 850 25.1 -21.2 -6.1 71 -25.1 -13.2
03:05 1021 30.15 850 25.1 -21 -5.9 70 -25.2 -13.4
03:10 1021 30.15 850 25.1 -21.1 -5.9 70 -25.2 -13.4
03:15 1021 30.15 850 25.1 -21 -5.8 69 -25.2 -13.4
03:20 1021 30.15 850 25.1 -21 -5.8 69 -25.3 -13.5
03:25 1021 30.15 850 25.1 -21.1 -6 69 -25.4 -13.7
03:30 1021 30.15 850 25.1 -21.2 -6.1 68 -25.6 -14
03:35 1021 30.15 850 25.1 -21.2 -6.2 68 -25.6 -14.1
03:40 1021 30.15 850 25.1 -21.4 -6.6 68 -25.8 -14.4
03:45 1021 30.15 850 25.1 -21.7 -7.1 69 -25.9 -14.7
03:50 1021 30.15 850 25.1 -22 -7.6 72 -25.8 -14.4
03:55 1021 30.15 850 25.1 -22 -7.6 71 -25.9 -14.6
04:00 1021 30.15 850 25.1 -22.1 -7.9 71 -26 -14.8
04:05 1021 30.15 850 25.1 -22.2 -8 71 -26.2 -15.2
04:10 1021 30.15 850 25.1 -22.3 -8.1 71 -26.2 -15.2
04:15 1021 30.15 850 25.1 -22.3 -8.1 70 -26.4 -15.5
04:20 1021 30.15 850 25.1 -22.3 -8.1 71 -26.2 -15.1
04:25 1021 30.15 850 25.1 -22 -7.5 71 -25.9 -14.7
04:30 1021 30.15 850 25.1 -22 -7.7 69 -26.3 -15.3
04:35 1021 30.15 850 25.1 -21.8 -7.3 71 -25.7 -14.3
04:40 1021 30.15 850 25.1 -21.4 -6.6 71 -25.4 -13.8
04:45 1021 30.15 850 25.1 -21.4 -6.5 69 -25.6 -14.1
04:50 1021 30.15 851 25.13 -21.5 -6.7 68 -25.9 -14.7
04:55 1021 30.15 851 25.13 -21.6 -6.9 67 -26.3 -15.3
05:00 1021 30.15 851 25.13 -21.8 -7.2 69 -26.1 -15
05:05 1022 30.18 851 25.13 -21.7 -7.1 69 -26.1 -14.9
05:10 1022 30.18 851 25.13 -21.8 -7.3 68 -26.2 -15.1
05:15 1022 30.18 851 25.13 -21.9 -7.3 68 -26.2 -15.2
05:20 1021 30.15 851 25.13 -22.2 -7.9 69 -26.4 -15.5
05:25 1021 30.15 851 25.13 -22.3 -8.2 70 -26.4 -15.6
05:30 1021 30.15 851 25.13 -22.7 -8.8 71 -26.5 -15.7
05:35 1022 30.18 851 25.13 -22.6 -8.8 71 -26.6 -15.9
05:40 1021 30.15 851 25.13 -22.9 -9.2 71 -26.9 -16.4
05:45 1021 30.15 851 25.13 -23.3 -10 71 -27.2 -17
05:50 1021 30.15 851 25.13 -23.5 -10.2 71 -27.3 -17.2
05:55 1021 30.15 851 25.13 -23.6 -10.4 71 -27.4 -17.3
06:00 1021 30.15 851 25.13 -23.6 -10.5 71 -27.4 -17.4
06:05 1021 30.15 851 25.13 -23.6 -10.5 72 -27.4 -17.3
06:10 1021 30.15 851 25.13 -23.5 -10.3 72 -27.2 -17
06:15 1022 30.18 851 25.13 -23.3 -9.9 72 -27 -16.6
06:20 1022 30.18 851 25.13 -23.1 -9.6 73 -26.8 -16.2
06:25 1021 30.15 851 25.13 -22.9 -9.3 71 -26.9 -16.4
06:30 1021 30.15 851 25.13 -23.2 -9.7 71 -27.1 -16.8
06:35 1022 30.18 851 25.13 -23.4 -10.1 71 -27.3 -17.2
06:40 1022 30.18 851 25.13 -23.6 -10.4 71 -27.5 -17.5
06:45 1022 30.18 851 25.13 -23.6 -10.4 70 -27.6 -17.7
06:50 1022 30.18 851 25.13 -23.6 -10.6 70 -27.6 -17.7
06:55 1022 30.18 851 25.13 -23.5 -10.2 70 -27.6 -17.6
07:00 1022 30.18 851 25.13 -23.5 -10.3 70 -27.5 -17.6
07:05 1022 30.18 851 25.13 -23.7 -10.7 70 -27.7 -17.9
07:10 1022 30.18 851 25.13 -23.9 -11 70 -27.9 -18.2
07:15 1022 30.18 851 25.13 -23.9 -11.1 71 -27.8 -18
07:20 1021 30.15 851 25.13 -23.9 -11 71 -27.7 -17.9
07:25 1021 30.15 851 25.13 -23.6 -10.5 71 -27.5 -17.5
07:30 1021 30.15 851 25.13 -23.4 -10 71 -27.3 -17.2
07:35 1021 30.15 851 25.13 -23.1 -9.6 70 -27.1 -16.8
07:40 1021 30.15 851 25.13 -23 -9.4 71 -26.9 -16.5
07:45 1021 30.15 851 25.13 -22.8 -9 69 -27 -16.6
07:50 1021 30.15 851 25.13 -22.8 -9 68 -27.2 -16.9
07:55 1021 30.15 851 25.13 -22.8 -9.1 67 -27.3 -17.1
08:00 1021 30.15 851 25.13 -22.8 -9.1 68 -27.2 -17
08:05 1022 30.18 851 25.13 -22.7 -8.8 68 -27 -16.7
08:10 1022 30.18 851 25.13 -22.5 -8.5 68 -27 -16.5
08:15 1021 30.15 851 25.13 -22.1 -7.7 68 -26.5 -15.7
08:20 1021 30.15 851 25.13 -21.9 -7.4 70 -26 -14.9
08:25 1021 30.15 851 25.13 -21.9 -7.3 68 -26.3 -15.4
08:30 1021 30.15 851 25.13 -22.1 -7.8 68 -26.5 -15.6
08:35 1021 30.15 851 25.13 -22 -7.5 68 -26.4 -15.6
08:40 1021 30.15 851 25.13 -21.8 -7.2 67 -26.4 -15.5
08:45 1021 30.15 851 25.13 -21.7 -7.1 67 -26.3 -15.4
08:50 1021 30.15 851 25.13 -21.7 -7 66 -26.3 -15.4
08:55 1021 30.15 850 25.1 -21.8 -7.2 68 -26.2 -15.1
09:00 1021 30.15 850 25.1 -21.7 -7.1 69 -26.1 -14.9
09:05 1021 30.15 850 25.1 -21.5 -6.7 67 -26.1 -14.9
09:10 1021 30.15 850 25.1 -21.3 -6.3 68 -25.8 -14.4
09:15 1021 30.15 850 25.1 -21.1 -5.9 67 -25.7 -14.2
09:20 1021 30.15 850 25.1 -20.8 -5.4 66 -25.6 -14
09:25 1021 30.15 851 25.13 -20.5 -4.8 67 -25.1 -13.2
09:30 1021 30.15 851 25.13 -20.1 -4.3 65 -25.2 -13.3
09:35 1021 30.15 851 25.13 -20.3 -4.5 64 -25.3 -13.6
09:40 1022 30.18 851 25.13 -20.2 -4.4 65 -25.2 -13.4
09:45 1022 30.18 851 25.13 -20 -3.9 63 -25.3 -13.5
09:50 1022 30.18 851 25.13 -19.9 -3.8 65 -24.9 -12.8
09:55 1022 30.18 851 25.13 -19.6 -3.2 63 -24.9 -12.8
10:00 1022 30.18 851 25.13 -19.5 -3.1 63 -24.9 -12.8
10:05 1022 30.18 851 25.13 -19.4 -2.9 63 -24.8 -12.7
10:10 1022 30.18 851 25.13 -19.3 -2.7 63 -24.6 -12.3
10:15 1022 30.18 851 25.13 -19.2 -2.5 63 -24.6 -12.3
10:20 1022 30.18 851 25.13 -18.9 -1.9 61 -24.6 -12.2
10:25 1022 30.18 851 25.13 -19 -2.3 63 -24.4 -11.9
10:30 1022 30.18 851 25.13 -18.7 -1.7 61 -24.4 -11.9
10:35 1022 30.18 851 25.13 -18.6 -1.5 62 -24.3 -11.7
10:40 1022 30.18 851 25.13 -18.5 -1.3 62 -24.1 -11.4
10:45 1022 30.18 851 25.13 -18.1 -0.5 60 -24 -11.2
10:50 1022 30.18 851 25.13 -17.9 -0.2 60 -23.9 -11.1
10:55 1022 30.18 851 25.13 -17.5 0.6 59 -23.7 -10.6
11:00 1022 30.18 851 25.13 -17.1 1.1 58 -23.6 -10.5
11:05 1022 30.18 851 25.13 -16.9 1.5 57 -23.7 -10.6
11:10 1022 30.18 851 25.13 -16.4 2.5 57 -23.2 -9.7
11:15 1021 30.15 851 25.13 -16.1 3.1 55 -23.2 -9.8
11:20 1021 30.15 851 25.13 -16 3.2 55 -23.2 -9.7
11:25 1021 30.15 850 25.1 -16.4 2.6 57 -23 -9.4
11:30 1021 30.15 850 25.1 -17.2 1.1 58 -23.5 -10.3
11:35 1021 30.15 850 25.1 -17.3 1 59 -23.6 -10.4
11:40 1021 30.15 850 25.1 -17.3 0.8 60 -23.3 -9.9
11:45 1021 30.15 850 25.1 -16.5 2.4 58 -23 -9.4
11:50 1021 30.15 850 25.1 -17.6 0.4 63 -23 -9.4
11:55 1021 30.15 850 25.1 -16.6 2.1 56 -23.4 -10.1
12:00 1021 30.15 850 25.1 -15.9 3.4 55 -22.9 -9.2
12:05 1021 30.15 850 25.1 -15.5 4 54 -22.8 -9.1
12:10 1021 30.15 850 25.1 -15.5 4 54 -22.9 -9.2
12:15 1021 30.15 850 25.1 -15.6 3.9 56 -22.6 -8.6
12:20 1021 30.15 850 25.1 -17.2 1 60 -23.2 -9.8
12:25 1021 30.15 850 25.1 -18 -0.4 64 -23.1 -9.7
12:30 1021 30.15 850 25.1 -17.7 0.1 61 -23.5 -10.3
12:35 1021 30.15 850 25.1 -17.4 0.6 60 -23.5 -10.4
12:40 1021 30.15 850 25.1 -18.3 -1 65 -23.4 -10
12:45 1021 30.15 850 25.1 -18.1 -0.6 65 -23.2 -9.8
12:50 1021 30.15 850 25.1 -17.3 0.9 59 -23.6 -10.4
12:55 1021 30.15 850 25.1 -16.3 2.7 56 -23.1 -9.6
13:00 1021 30.15 850 25.1 -16.8 1.8 57 -23.3 -10
13:05 1020 30.12 850 25.1 -16.4 2.5 56 -23.2 -9.8
13:10 1020 30.12 850 25.1 -15.9 3.3 54 -23.3 -9.9
13:15 1020 30.12 850 25.1 -15.4 4.4 52 -23.2 -9.7
13:20 1020 30.12 850 25.1 -15.4 4.4 53 -22.9 -9.2
13:25 1020 30.12 850 25.1 -15.5 4 53 -23.1 -9.5
13:30 1020 30.12 850 25.1 -15.6 3.9 53 -23.2 -9.8
13:35 1020 30.12 850 25.1 -15.6 4 53 -23.1 -9.5
13:40 1020 30.12 850 25.1 -15.7 3.8 53 -23.2 -9.7
13:45 1020 30.12 850 25.1 -15.4 4.4 53 -23 -9.4
13:50 1020 30.12 850 25.1 -15.1 4.9 53 -22.7 -8.8
13:55 1020 30.12 850 25.1 -15 5 51 -23 -9.4
14:00 1020 30.12 850 25.1 -14.8 5.3 52 -22.6 -8.7
14:05 1020 30.12 850 25.1 -15.5 4 55 -22.6 -8.7
14:10 1020 30.12 850 25.1 -17 1.4 59 -23.3 -9.9
14:15 1020 30.12 850 25.1 -16.6 2.1 56 -23.5 -10.2
14:20 1020 30.12 850 25.1 -15.6 3.9 52 -23.4 -10.1
14:25 1020 30.12 850 25.1 -15.9 3.5 55 -22.9 -9.2
14:30 1020 30.12 850 25.1 -16.3 2.8 53 -23.8 -10.8
14:35 1020 30.12 850 25.1 -15.8 3.6 54 -23.1 -9.6
14:40 1020 30.12 850 25.1 -15.3 4.4 51 -23.4 -10.1
14:45 1020 30.12 850 25.1 -15.2 4.7 52 -23 -9.4
14:50 1020 30.12 850 25.1 -15.3 4.6 53 -22.8 -9
14:55 1020 30.12 850 25.1 -15.8 3.6 55 -22.8 -9.1
15:00 1020 30.12 850 25.1 -15.9 3.3 54 -23.2 -9.7
15:05 1021 30.15 850 25.1 -16.4 2.5 57 -23 -9.4
15:10 1020 30.12 850 25.1 -16.8 1.8 59 -23.1 -9.5
15:15 1021 30.15 850 25.1 -17 1.3 60 -23.1 -9.6
15:20 1021 30.15 850 25.1 -16.9 1.7 59 -23 -9.4
15:25 1020 30.12 850 25.1 -16.9 1.5 59 -23.1 -9.6
15:30 1020 30.12 850 25.1 -17.6 0.3 63 -23.2 -9.7
15:35 1020 30.12 850 25.1 -17.8 -0 62 -23.5 -10.3
15:40 1020 30.12 850 25.1 -17.8 -0 64 -23.1 -9.5
15:45 1020 30.12 850 25.1 -17.7 0.1 64 -23 -9.5
15:50 1020 30.12 850 25.1 -17.7 0.2 63 -23.1 -9.7
15:55 1020 30.12 849 25.07 -17.8 -0 64 -23 -9.4
16:00 1020 30.12 849 25.07 -17.8 -0 63 -23.2 -9.7
16:05 1020 30.12 850 25.1 -17.9 -0.2 66 -22.8 -9.1
16:10 1020 30.12 850 25.1 -17.7 0.2 64 -22.9 -9.3
16:15 1020 30.12 849 25.07 -17.6 0.3 63 -23 -9.4
16:20 1020 30.12 850 25.1 -17.6 0.4 63 -23 -9.4
16:25 1020 30.12 850 25.1 -17.6 0.4 64 -22.9 -9.1
16:30 1021 30.15 850 25.1 -17.7 0.2 65 -22.7 -8.9
16:35 1021 30.15 850 25.1 -17.7 0.2 64 -22.9 -9.2
16:40 1021 30.15 850 25.1 -17.8 -0.1 65 -22.9 -9.3
16:45 1021 30.15 850 25.1 -17.9 -0.1 64 -23.1 -9.5
16:50 1020 30.12 850 25.1 -18.2 -0.7 67 -22.9 -9.3
16:55 1020 30.12 850 25.1 -18.4 -1.1 68 -22.9 -9.2
17:00 1020 30.12 850 25.1 -18.5 -1.3 68 -23.1 -9.6
17:05 1020 30.12 850 25.1 -18.5 -1.3 68 -23.1 -9.6
17:10 1021 30.15 850 25.1 -18.6 -1.4 68 -23.1 -9.5
17:15 1020 30.12 850 25.1 -18.6 -1.4 69 -23 -9.4
17:20 1021 30.15 850 25.1 -18.5 -1.3 68 -23 -9.4
17:25 1020 30.12 850 25.1 -18.4 -1.1 67 -23 -9.4
17:30 1020 30.12 850 25.1 -18.4 -1.1 67 -23.1 -9.6
17:35 1020 30.12 850 25.1 -18.5 -1.2 67 -23.2 -9.7
17:40 1020 30.12 850 25.1 -18.5 -1.4 67 -23.2 -9.7
17:45 1020 30.12 850 25.1 -18.6 -1.6 69 -23 -9.4
17:50 1020 30.12 850 25.1 -18.8 -1.8 70 -23 -9.5
17:55 1020 30.12 850 25.1 -19.1 -2.4 71 -23.2 -9.8
18:00 1020 30.12 850 25.1 -19.4 -2.8 73 -23.1 -9.5
18:05 1020 30.12 850 25.1 -19.2 -2.5 72 -23 -9.5
18:10 1020 30.12 849 25.07 -19.1 -2.5 71 -23.2 -9.7
18:15 1020 30.12 849 25.07 -19.4 -2.8 72 -23.2 -9.8
18:20 1020 30.12 850 25.1 -19.8 -3.6 74 -23.3 -10
18:25 1021 30.15 850 25.1 -19.8 -3.6 73 -23.5 -10.3
18:30 1021 30.15 850 25.1 -19.8 -3.7 73 -23.5 -10.2
18:35 1021 30.15 850 25.1 -19.7 -3.4 72 -23.5 -10.3
18:40 1021 30.15 850 25.1 -19.8 -3.7 72 -23.6 -10.4
18:45 1021 30.15 850 25.1 -20 -4.1 73 -23.7 -10.6
18:50 1021 30.15 850 25.1 -20.4 -4.7 76 -23.6 -10.5
18:55 1021 30.15 850 25.1 -20.6 -5 76 -23.7 -10.7
19:00 1021 30.15 850 25.1 -20.8 -5.4 77 -23.9 -10.9
19:05 1021 30.15 850 25.1 -20.6 -5.1 76 -23.8 -10.9
19:10 1021 30.15 850 25.1 -20.4 -4.8 74 -23.9 -11
19:15 1021 30.15 850 25.1 -20.9 -5.6 76 -24.1 -11.4
19:20 1021 30.15 850 25.1 -21 -5.8 76 -24.2 -11.6
19:25 1021 30.15 850 25.1 -21.1 -6 76 -24.3 -11.7
19:30 1021 30.15 850 25.1 -21.1 -6 76 -24.3 -11.8
19:35 1021 30.15 850 25.1 -21.3 -6.3 76 -24.4 -12
19:40 1021 30.15 850 25.1 -21.3 -6.3 76 -24.4 -12
19:45 1021 30.15 850 25.1 -21.2 -6.2 76 -24.5 -12.1
19:50 1020 30.12 850 25.1 -21.3 -6.4 76 -24.5 -12.2
19:55 1020 30.12 850 25.1 -21.6 -6.8 76 -24.7 -12.5
20:00 1020 30.12 850 25.1 -21.5 -6.7 76 -24.7 -12.5
20:05 1020 30.12 850 25.1 -21.4 -6.6 75 -24.8 -12.6
20:10 1021 30.15 850 25.1 -21.4 -6.5 75 -24.7 -12.5
20:15 1021 30.15 850 25.1 -21.3 -6.3 73 -24.9 -12.9
20:20 1021 30.15 850 25.1 -21.7 -7 76 -24.9 -12.8
20:25 1021 30.15 850 25.1 -21.3 -6.4 74 -24.8 -12.7
20:30 1021 30.15 850 25.1 -21.3 -6.3 74 -24.8 -12.7
20:35 1021 30.15 850 25.1 -21.3 -6.3 74 -24.7 -12.5
20:40 1021 30.15 850 25.1 -21.2 -6.2 74 -24.7 -12.4
20:45 1021 30.15 850 25.1 -21.2 -6.1 75 -24.6 -12.3
20:50 1021 30.15 850 25.1 -21.1 -5.9 74 -24.5 -12.1
20:55 1021 30.15 850 25.1 -20.8 -5.5 74 -24.4 -11.9
21:00 1021 30.15 850 25.1 -20.8 -5.4 73 -24.4 -12
21:05 1021 30.15 850 25.1 -21.3 -6.3 75 -24.6 -12.3
21:10 1021 30.15 850 25.1 -21.4 -6.6 77 -24.5 -12.1
21:15 1021 30.15 850 25.1 -21.4 -6.5 76 -24.6 -12.4
21:20 1021 30.15 850 25.1 -21.5 -6.6 76 -24.6 -12.3
21:25 1021 30.15 850 25.1 -21.3 -6.3 76 -24.4 -11.9
21:30 1021 30.15 850 25.1 -21.1 -5.9 74 -24.6 -12.3
21:35 1021 30.15 850 25.1 -21.5 -6.6 75 -24.7 -12.5
21:40 1021 30.15 850 25.1 -21.5 -6.7 76 -24.7 -12.4
21:45 1020 30.12 850 25.1 -21.4 -6.5 75 -24.6 -12.4
21:50 1020 30.12 850 25.1 -21.3 -6.3 75 -24.6 -12.2
21:55 1020 30.12 850 25.1 -21.1 -6 75 -24.4 -11.8
22:00 1020 30.12 850 25.1 -20.9 -5.6 76 -24.1 -11.3
22:05 1020 30.12 850 25.1 -20.7 -5.3 76 -24 -11.1
22:10 1020 30.12 850 25.1 -20.8 -5.4 75 -24.1 -11.3
22:15 1021 30.15 850 25.1 -20.6 -5.1 74 -24 -11.2
22:20 1020 30.12 850 25.1 -20.5 -4.8 75 -23.8 -10.9
22:25 1020 30.12 850 25.1 -20.5 -4.9 76 -23.7 -10.7
22:30 1020 30.12 850 25.1 -20.6 -5.1 76 -23.8 -10.9
22:35 1020 30.12 850 25.1 -20.7 -5.2 75 -24 -11.2
22:40 1020 30.12 850 25.1 -20.9 -5.5 75 -24.2 -11.5
22:45 1020 30.12 850 25.1 -20.9 -5.6 75 -24.2 -11.6
22:50 1020 30.12 850 25.1 -20.9 -5.7 74 -24.4 -11.9
22:55 1020 30.12 850 25.1 -21.3 -6.3 76 -24.5 -12.1
23:00 1021 30.15 850 25.1 -21.2 -6.2 76 -24.3 -11.8
23:05 1021 30.15 850 25.1 -21 -5.8 76 -24.2 -11.6
23:10 1020 30.12 850 25.1 -21 -5.7 76 -24.2 -11.6
23:15 1020 30.12 850 25.1 -20.9 -5.7 76 -24.2 -11.5
23:20 1020 30.12 850 25.1 -21.1 -5.9 76 -24.2 -11.5
23:25 1021 30.15 850 25.1 -20.9 -5.6 75 -24.2 -11.6
23:30 1021 30.15 850 25.1 -21 -5.8 76 -24.2 -11.6
23:35 1020 30.12 850 25.1 -21 -5.9 75 -24.3 -11.8
23:40 1020 30.12 850 25.1 -21.3 -6.3 75 -24.6 -12.3
23:45 1020 30.12 850 25.1 -21.7 -7 76 -24.9 -12.8
23:50 1020 30.12 850 25.1 -22.2 -8 79 -24.9 -12.8
23:55 1020 30.12 850 25.1 -22.1 -7.7 80 -24.6 -12.3
24:00 1020 30.12 850 25.1 -22 -7.5 78 -24.8 -12.6